createdAt,value
2019-03-20T00:00:04.202Z,79.36
2019-03-20T00:02:35.518Z,79.61
2019-03-20T00:05:07.914Z,79.14
2019-03-20T00:07:39.516Z,78.89
2019-03-20T00:10:12.034Z,78.84
2019-03-20T00:12:43.432Z,79.11
2019-03-20T00:15:15.051Z,78.46
2019-03-20T00:17:46.357Z,78.16
2019-03-20T00:20:17.659Z,78.47
2019-03-20T00:22:48.986Z,78.86
2019-03-20T00:25:20.434Z,79.51
2019-03-20T00:27:51.721Z,79.44
2019-03-20T00:30:23.331Z,79.56
2019-03-20T00:32:54.952Z,79.50
2019-03-20T00:35:26.600Z,79.47
2019-03-20T00:37:58.034Z,79.50
2019-03-20T00:40:29.366Z,79.09
2019-03-20T00:43:00.661Z,78.86
2019-03-20T00:45:31.962Z,79.23
2019-03-20T00:48:03.676Z,79.37
2019-03-20T00:50:34.963Z,79.36
2019-03-20T00:53:06.938Z,78.40
2019-03-20T00:55:38.947Z,78.90
2019-03-20T00:58:10.337Z,78.96
2019-03-20T01:00:41.993Z,78.83
2019-03-20T01:03:13.276Z,78.55
2019-03-20T01:05:44.900Z,78.40
2019-03-20T01:08:16.188Z,78.60
2019-03-20T01:10:47.941Z,77.97
2019-03-20T01:13:19.516Z,78.32
2019-03-20T01:15:51.078Z,78.20
2019-03-20T01:18:22.673Z,78.19
2019-03-20T01:20:54.298Z,78.52
2019-03-20T01:23:25.852Z,79.03
2019-03-20T01:25:57.764Z,78.06
2019-03-20T01:28:29.546Z,77.88
2019-03-20T01:31:01.479Z,78.31
2019-03-20T01:33:33.467Z,77.82
2019-03-20T01:36:05.100Z,77.85
2019-03-20T01:38:36.686Z,77.91
2019-03-20T01:41:08.380Z,77.97
2019-03-20T01:43:39.682Z,78.06
2019-03-20T01:46:11.703Z,78.12
2019-03-20T01:48:43.943Z,78.16
2019-03-20T01:51:23.024Z,78.71
2019-03-20T01:53:54.620Z,78.52
2019-03-20T01:56:25.966Z,79.90
2019-03-20T01:58:57.268Z,79.35
2019-03-20T02:01:29.209Z,79.30
2019-03-20T02:04:00.584Z,78.65
2019-03-20T02:06:32.222Z,78.48
2019-03-20T02:09:05.442Z,78.59
2019-03-20T02:11:36.765Z,78.57
2019-03-20T02:14:08.118Z,78.91
2019-03-20T02:16:39.710Z,78.62
2019-03-20T02:19:11.039Z,78.81
2019-03-20T02:21:42.332Z,79.08
2019-03-20T02:24:14.014Z,79.13
2019-03-20T02:26:46.807Z,78.96
2019-03-20T02:29:19.165Z,79.42
2019-03-20T02:31:50.692Z,79.50
2019-03-20T02:34:22.375Z,78.95
2019-03-20T02:36:54.070Z,79.35
2019-03-20T02:39:26.977Z,79.08
2019-03-20T02:41:58.908Z,79.72
2019-03-20T02:44:30.213Z,79.93
2019-03-20T02:47:01.535Z,79.94
2019-03-20T02:49:32.939Z,79.52
2019-03-20T02:52:04.498Z,79.63
2019-03-20T02:54:36.127Z,79.77
2019-03-20T02:57:07.566Z,80.32
2019-03-20T02:59:38.967Z,81.29
2019-03-20T03:02:10.316Z,81.46
2019-03-20T03:04:42.127Z,81.04
2019-03-20T03:07:13.441Z,80.29
2019-03-20T03:09:45.338Z,81.03
2019-03-20T03:12:16.963Z,81.20
2019-03-20T03:14:48.552Z,81.62
2019-03-20T03:17:20.143Z,81.09
2019-03-20T03:19:51.456Z,81.29
2019-03-20T03:22:22.772Z,81.09
2019-03-20T03:24:54.053Z,80.33
2019-03-20T03:27:25.288Z,80.57
2019-03-20T03:29:56.612Z,80.31
2019-03-20T03:32:29.462Z,79.97
2019-03-20T03:35:01.514Z,80.07
2019-03-20T03:37:33.467Z,80.23
2019-03-20T03:40:05.624Z,80.06
2019-03-20T03:42:37.332Z,79.94
2019-03-20T03:45:11.365Z,80.06
2019-03-20T03:47:42.685Z,80.00
2019-03-20T03:50:14.828Z,79.79
2019-03-20T03:52:46.142Z,79.34
2019-03-20T03:55:17.472Z,79.34
2019-03-20T03:57:49.366Z,78.80
2019-03-20T04:00:21.070Z,78.80
2019-03-20T04:02:52.715Z,78.55
2019-03-20T04:05:24.009Z,78.73
2019-03-20T04:07:55.276Z,78.96
2019-03-20T04:10:27.342Z,78.87
2019-03-20T04:12:59.016Z,78.77
2019-03-20T04:15:30.724Z,78.77
2019-03-20T04:18:02.778Z,78.73
2019-03-20T04:20:34.113Z,78.78
2019-03-20T04:23:05.928Z,78.45
2019-03-20T04:25:37.535Z,78.59
2019-03-20T04:28:08.850Z,78.37
2019-03-20T04:30:40.212Z,78.19
2019-03-20T04:33:11.487Z,77.67
2019-03-20T04:35:43.354Z,77.72
2019-03-20T04:38:16.211Z,77.67
2019-03-20T04:40:48.108Z,77.60
2019-03-20T04:43:21.204Z,77.56
2019-03-20T04:45:52.539Z,77.81
2019-03-20T04:48:24.493Z,78.12
2019-03-20T04:50:55.798Z,77.87
2019-03-20T04:53:27.071Z,77.77
2019-03-20T04:55:58.421Z,77.96
2019-03-20T04:58:30.144Z,77.98
2019-03-20T05:01:01.984Z,77.78
2019-03-20T05:03:34.205Z,77.96
2019-03-20T05:06:05.617Z,78.09
2019-03-20T05:08:37.145Z,77.90
2019-03-20T05:11:09.225Z,77.80
2019-03-20T05:13:41.250Z,77.87
2019-03-20T05:16:12.542Z,78.01
2019-03-20T05:18:43.794Z,77.98
2019-03-20T05:21:15.097Z,77.87
2019-03-20T05:23:46.924Z,78.20
2019-03-20T05:26:18.238Z,78.06
2019-03-20T05:28:50.271Z,78.07
2019-03-20T05:31:22.213Z,77.87
2019-03-20T05:33:54.091Z,77.73
2019-03-20T05:36:26.676Z,77.53
2019-03-20T05:38:58.343Z,77.58
2019-03-20T05:41:30.277Z,77.88
2019-03-20T05:44:01.920Z,77.66
2019-03-20T05:46:33.705Z,77.51
2019-03-20T05:49:05.437Z,77.58
2019-03-20T05:51:36.722Z,77.51
2019-03-20T05:54:08.409Z,77.56
2019-03-20T05:56:39.685Z,77.44
2019-03-20T05:59:11.847Z,77.36
2019-03-20T06:01:43.636Z,77.64
2019-03-20T06:04:14.972Z,77.07
2019-03-20T06:06:46.591Z,76.80
2019-03-20T06:09:17.866Z,76.93
2019-03-20T06:11:49.184Z,76.96
2019-03-20T06:14:20.538Z,76.82
2019-03-20T06:16:51.824Z,76.72
2019-03-20T06:19:23.672Z,76.79
2019-03-20T06:21:55.621Z,76.91
2019-03-20T06:24:27.101Z,76.67
2019-03-20T06:26:58.405Z,76.47
2019-03-20T06:29:30.393Z,76.48
2019-03-20T06:32:02.613Z,75.81
2019-03-20T06:34:33.907Z,76.03
2019-03-20T06:37:05.706Z,75.59
2019-03-20T06:39:37.530Z,75.19
2019-03-20T06:42:08.790Z,74.88
2019-03-20T06:44:40.406Z,75.12
2019-03-20T06:47:11.726Z,74.93
2019-03-20T06:49:43.039Z,74.03
2019-03-20T06:52:15.120Z,73.92
2019-03-20T06:54:46.920Z,74.54
2019-03-20T06:57:18.223Z,73.42
2019-03-20T07:00:52.737Z,73.33
2019-03-20T07:03:41.989Z,72.45
2019-03-20T07:06:41.631Z,73.13
2019-03-20T07:09:25.792Z,72.41
2019-03-20T07:11:57.728Z,71.55
2019-03-20T07:14:29.689Z,70.84
2019-03-20T07:17:01.350Z,69.94
2019-03-20T07:19:33.370Z,70.32
2019-03-20T07:22:05.156Z,69.77
2019-03-20T07:24:36.490Z,69.10
2019-03-20T07:27:08.259Z,68.85
2019-03-20T07:29:40.197Z,68.42
2019-03-20T07:32:11.599Z,68.29
2019-03-20T07:34:43.872Z,68.47
2019-03-20T07:37:15.598Z,67.82
2019-03-20T07:39:47.168Z,67.54
2019-03-20T07:42:18.758Z,66.99
2019-03-20T07:44:50.468Z,67.25
2019-03-20T07:47:22.781Z,67.82
2019-03-20T07:49:54.029Z,66.42
2019-03-20T07:52:26.769Z,65.82
2019-03-20T07:54:58.401Z,65.12
2019-03-20T07:57:30.391Z,64.43
2019-03-20T08:00:03.714Z,64.04
2019-03-20T08:02:35.305Z,64.47
2019-03-20T08:05:07.750Z,63.45
2019-03-20T08:07:39.391Z,63.18
2019-03-20T08:10:13.006Z,64.85
2019-03-20T08:12:44.504Z,62.95
2019-03-20T08:15:16.551Z,64.26
2019-03-20T08:17:48.774Z,63.24
2019-03-20T08:20:20.295Z,62.06
2019-03-20T08:22:52.272Z,63.76
2019-03-20T08:25:23.606Z,61.67
2019-03-20T08:27:57.231Z,62.20
2019-03-20T08:30:29.230Z,62.72
2019-03-20T08:33:00.854Z,61.25
2019-03-20T08:35:32.482Z,60.16
2019-03-20T08:38:03.962Z,60.45
2019-03-20T08:40:36.067Z,59.84
2019-03-20T08:43:07.436Z,56.61
2019-03-20T08:45:44.266Z,57.58
2019-03-20T08:48:15.620Z,56.51
2019-03-20T08:50:46.988Z,56.20
2019-03-20T08:53:18.727Z,55.96
2019-03-20T08:55:50.005Z,55.59
2019-03-20T08:58:21.710Z,57.73
2019-03-20T09:00:53.727Z,55.01
2019-03-20T09:03:25.165Z,54.10
2019-03-20T09:05:56.453Z,54.77
2019-03-20T09:08:29.728Z,53.88
2019-03-20T09:11:02.106Z,52.97
2019-03-20T09:13:33.867Z,54.23
2019-03-20T09:16:05.743Z,54.77
2019-03-20T09:18:37.144Z,52.91
2019-03-20T09:21:08.511Z,52.99
2019-03-20T09:23:40.929Z,51.17
2019-03-20T09:26:12.233Z,52.48
2019-03-20T09:28:43.753Z,51.08
2019-03-20T09:31:15.075Z,52.10
2019-03-20T09:33:46.715Z,50.06
2019-03-20T09:36:21.093Z,50.96
2019-03-20T09:38:52.808Z,51.75
2019-03-20T09:41:24.313Z,51.18
2019-03-20T09:44:01.168Z,51.66
2019-03-20T09:46:33.935Z,51.69
2019-03-20T09:49:05.427Z,51.67
2019-03-20T09:51:36.843Z,50.53
2019-03-20T09:54:08.611Z,52.97
2019-03-20T09:56:40.529Z,50.71
2019-03-20T09:59:12.061Z,53.95
2019-03-20T10:01:44.677Z,50.89
2019-03-20T10:04:16.174Z,53.54
2019-03-20T10:06:48.442Z,51.62
2019-03-20T10:09:20.262Z,53.78
2019-03-20T10:11:51.701Z,53.22
2019-03-20T10:14:22.966Z,53.20
2019-03-20T10:16:54.730Z,50.74
2019-03-20T10:19:26.245Z,51.13
2019-03-20T10:21:57.574Z,49.98
2019-03-20T10:24:38.996Z,51.86
2019-03-20T10:27:10.495Z,50.51
2019-03-20T10:29:41.976Z,49.51
2019-03-20T10:32:13.743Z,50.11
2019-03-20T10:34:45.452Z,49.73
2019-03-20T10:37:17.118Z,48.56
2019-03-20T10:39:48.801Z,50.20
2019-03-20T10:42:20.508Z,49.95
2019-03-20T10:44:51.805Z,50.31
2019-03-20T10:47:23.201Z,51.35
2019-03-20T10:49:54.717Z,49.22
2019-03-20T10:52:26.523Z,49.04
2019-03-20T10:54:59.286Z,47.91
2019-03-20T10:57:30.654Z,47.27
2019-03-20T11:00:04.701Z,50.50
2019-03-20T11:02:36.759Z,49.58
2019-03-20T11:05:08.983Z,46.34
2019-03-20T11:07:42.041Z,48.25
2019-03-20T11:10:15.482Z,45.87
2019-03-20T11:12:46.874Z,48.25
2019-03-20T11:15:18.665Z,46.06
2019-03-20T11:17:50.313Z,46.69
2019-03-20T11:20:22.402Z,46.19
2019-03-20T11:22:54.179Z,45.74
2019-03-20T11:25:25.602Z,44.55
2019-03-20T11:27:57.610Z,44.27
2019-03-20T11:30:28.902Z,44.99
2019-03-20T11:33:00.769Z,44.40
2019-03-20T11:35:32.431Z,45.24
2019-03-20T11:38:04.194Z,44.51
2019-03-20T11:40:35.745Z,44.44
2019-03-20T11:43:10.310Z,43.14
2019-03-20T11:45:41.963Z,44.51
2019-03-20T11:48:13.749Z,43.92
2019-03-20T11:50:45.161Z,43.00
2019-03-20T11:53:17.052Z,43.92
2019-03-20T11:55:49.030Z,43.99
2019-03-20T11:58:21.197Z,41.83
2019-03-20T12:00:52.485Z,42.41
2019-03-20T12:03:24.678Z,43.26
2019-03-20T12:05:56.092Z,44.65
2019-03-20T12:08:28.254Z,44.81
2019-03-20T12:10:59.802Z,43.69
2019-03-20T12:13:31.134Z,43.10
2019-03-20T12:16:02.914Z,43.21
2019-03-20T12:18:34.571Z,43.39
2019-03-20T12:21:06.071Z,41.83
2019-03-20T12:23:37.692Z,42.96
2019-03-20T12:26:09.160Z,43.60
2019-03-20T12:28:40.495Z,45.95
2019-03-20T12:31:12.386Z,44.49
2019-03-20T12:33:44.787Z,44.61
2019-03-20T12:36:16.010Z,45.22
2019-03-20T12:38:47.474Z,46.53
2019-03-20T12:41:19.489Z,47.36
2019-03-20T12:43:51.021Z,45.11
2019-03-20T12:46:22.479Z,46.96
2019-03-20T12:48:55.257Z,46.50
2019-03-20T12:51:27.116Z,46.46
2019-03-20T12:53:59.390Z,46.61
2019-03-20T12:56:31.029Z,45.82
2019-03-20T12:59:02.429Z,46.65
2019-03-20T13:01:33.661Z,48.63
2019-03-20T13:04:04.994Z,47.70
2019-03-20T13:06:36.290Z,47.53
2019-03-20T13:09:10.091Z,48.14
2019-03-20T13:11:41.778Z,47.81
2019-03-20T13:14:13.454Z,49.48
2019-03-20T13:16:44.812Z,48.99
2019-03-20T13:19:16.418Z,49.90
2019-03-20T13:21:48.023Z,49.11
2019-03-20T13:24:19.978Z,49.07
2019-03-20T13:26:51.616Z,50.57
2019-03-20T13:29:23.274Z,50.88
2019-03-20T13:31:54.884Z,50.29
2019-03-20T13:34:26.249Z,50.55
2019-03-20T13:36:57.566Z,50.95
2019-03-20T13:39:28.870Z,51.59
2019-03-20T13:42:02.983Z,51.58
2019-03-20T13:44:34.314Z,51.32
2019-03-20T13:47:08.039Z,52.02
2019-03-20T13:49:38.883Z,51.84
2019-03-20T13:52:10.523Z,52.36
2019-03-20T13:54:41.943Z,52.05
2019-03-20T13:57:13.855Z,52.18
2019-03-20T13:59:45.322Z,51.77
2019-03-20T14:02:17.257Z,52.24
2019-03-20T14:04:48.896Z,52.82
2019-03-20T14:07:20.189Z,52.33
2019-03-20T14:09:51.843Z,51.40
2019-03-20T14:12:23.191Z,53.11
2019-03-20T14:14:54.475Z,51.68
2019-03-20T14:17:25.761Z,51.72
2019-03-20T14:19:57.785Z,51.81
2019-03-20T14:22:29.169Z,51.86
2019-03-20T14:25:00.801Z,52.92
2019-03-20T14:27:33.586Z,53.17
2019-03-20T14:30:07.264Z,53.02
2019-03-20T14:32:38.602Z,54.00
2019-03-20T14:35:10.412Z,52.19
2019-03-20T14:37:41.967Z,53.20
2019-03-20T14:40:14.128Z,53.84
2019-03-20T14:42:46.484Z,53.10
2019-03-20T14:45:18.211Z,52.65
2019-03-20T14:47:50.107Z,54.62
2019-03-20T14:50:24.444Z,53.57
2019-03-20T14:52:56.192Z,52.53
2019-03-20T14:55:27.477Z,53.83
2019-03-20T14:57:58.877Z,53.74
2019-03-20T15:00:30.322Z,54.42
2019-03-20T15:03:02.834Z,54.00
2019-03-20T15:05:34.215Z,53.50
2019-03-20T15:08:05.726Z,53.31
2019-03-20T15:10:45.895Z,54.29
2019-03-20T15:13:12.329Z,53.11
2019-03-20T15:15:58.186Z,54.17
2019-03-20T15:18:30.186Z,54.48
2019-03-20T15:21:01.913Z,53.64
2019-03-20T15:23:33.174Z,54.75
2019-03-20T15:26:04.925Z,54.43
2019-03-20T15:28:36.233Z,54.35
2019-03-20T15:31:07.872Z,53.99
2019-03-20T15:33:39.904Z,54.45
2019-03-20T15:36:14.138Z,53.24
2019-03-20T15:38:48.929Z,52.61
2019-03-20T15:41:20.253Z,53.68
2019-03-20T15:44:01.846Z,52.99
2019-03-20T15:46:26.218Z,53.21
2019-03-20T15:48:57.530Z,53.13
2019-03-20T15:51:29.223Z,52.81
2019-03-20T15:54:00.859Z,53.03
2019-03-20T15:56:32.163Z,52.87
2019-03-20T15:59:03.520Z,53.76
2019-03-20T16:01:34.900Z,53.46
2019-03-20T16:04:07.631Z,53.26
2019-03-20T16:06:39.316Z,53.75
2019-03-20T16:09:11.085Z,54.37
2019-03-20T16:11:42.756Z,54.40
2019-03-20T16:14:14.516Z,53.73
2019-03-20T16:16:45.865Z,54.42
2019-03-20T16:21:59.958Z,54.74
2019-03-20T16:24:31.260Z,54.33
2019-03-20T16:27:02.494Z,54.95
2019-03-20T16:29:33.753Z,54.33
2019-03-20T16:32:05.558Z,54.64
2019-03-20T16:34:37.074Z,55.16
2019-03-20T16:37:08.354Z,55.34
2019-03-20T16:39:40.472Z,55.14
2019-03-20T16:42:11.728Z,55.21
2019-03-20T16:44:43.396Z,55.67
2019-03-20T16:47:14.671Z,55.87
2019-03-20T16:49:45.972Z,55.20
2019-03-20T16:52:17.261Z,56.43
2019-03-20T16:54:48.496Z,55.90
2019-03-20T16:57:21.825Z,56.76
2019-03-20T16:59:52.971Z,56.28
2019-03-20T17:02:25.791Z,56.63
2019-03-20T17:04:57.401Z,57.16
2019-03-20T17:07:28.688Z,57.31
2019-03-20T17:10:00.013Z,57.27
2019-03-20T17:12:31.273Z,57.27
2019-03-20T17:15:02.567Z,57.11
2019-03-20T17:17:33.869Z,57.50
2019-03-20T17:20:05.822Z,57.57
2019-03-20T17:22:41.946Z,57.98
2019-03-20T17:25:11.678Z,57.13
2019-03-20T17:27:42.925Z,58.12
2019-03-20T17:30:20.720Z,58.29
2019-03-20T17:32:51.955Z,57.79
2019-03-20T17:35:23.220Z,58.26
2019-03-20T17:37:54.771Z,58.06
2019-03-20T17:40:26.237Z,58.44
2019-03-20T17:42:57.533Z,58.24
2019-03-20T17:45:29.627Z,58.50
2019-03-20T17:48:01.260Z,59.27
2019-03-20T17:50:33.231Z,58.95
2019-03-20T17:53:06.165Z,58.81
2019-03-20T17:55:38.418Z,58.96
2019-03-20T17:58:09.727Z,59.45
2019-03-20T18:00:43.541Z,59.27
2019-03-20T18:03:15.296Z,59.59
2019-03-20T18:05:46.655Z,59.76
2019-03-20T18:08:20.767Z,59.86
2019-03-20T18:10:52.305Z,59.94
2019-03-20T18:13:23.862Z,59.72
2019-03-20T18:15:55.190Z,59.80
2019-03-20T18:18:26.402Z,59.78
2019-03-20T18:20:57.717Z,60.18
2019-03-20T18:23:28.990Z,59.79
2019-03-20T18:26:00.234Z,60.29
2019-03-20T18:28:31.533Z,60.34
2019-03-20T18:31:03.471Z,60.47
2019-03-20T18:33:34.739Z,60.55
2019-03-20T18:36:06.211Z,60.47
2019-03-20T18:38:37.505Z,60.79
2019-03-20T18:41:08.809Z,60.52
2019-03-20T18:43:42.111Z,60.66
2019-03-20T18:46:13.401Z,60.98
2019-03-20T18:48:44.798Z,60.87
2019-03-20T18:51:16.045Z,61.06
2019-03-20T18:53:47.818Z,61.23
2019-03-20T18:56:18.987Z,61.47
2019-03-20T18:58:50.655Z,61.61
2019-03-20T19:01:21.931Z,61.67
2019-03-20T19:03:53.236Z,61.49
2019-03-20T19:06:26.978Z,61.75
2019-03-20T19:08:58.357Z,61.78
2019-03-20T19:11:29.587Z,61.88
2019-03-20T19:14:01.167Z,61.94
2019-03-20T19:16:32.816Z,62.11
2019-03-20T19:19:04.116Z,62.29
2019-03-20T19:21:35.396Z,62.14
2019-03-20T19:24:06.864Z,62.07
2019-03-20T19:26:38.203Z,62.13
2019-03-20T19:29:09.849Z,62.14
2019-03-20T19:31:41.136Z,62.18
2019-03-20T19:34:12.753Z,62.48
2019-03-20T19:36:44.218Z,62.47
2019-03-20T19:39:15.602Z,62.46
2019-03-20T19:41:47.075Z,62.40
2019-03-20T19:44:19.377Z,62.57
2019-03-20T19:46:50.713Z,62.71
2019-03-20T19:49:22.012Z,62.50
2019-03-20T19:51:53.612Z,62.72
2019-03-20T19:54:24.914Z,62.45
2019-03-20T19:56:56.212Z,62.76
2019-03-20T19:59:27.454Z,62.79
2019-03-20T20:01:58.983Z,62.68
2019-03-20T20:04:30.189Z,62.61
2019-03-20T20:07:01.822Z,62.78
2019-03-20T20:09:33.127Z,63.02
2019-03-20T20:12:04.416Z,62.90
2019-03-20T20:14:35.715Z,63.24
2019-03-20T20:17:07.683Z,63.25
2019-03-20T20:19:39.642Z,63.46
2019-03-20T20:22:10.995Z,63.60
2019-03-20T20:24:42.372Z,63.65
2019-03-20T20:27:14.034Z,63.59
2019-03-20T20:29:45.300Z,63.83
2019-03-20T20:32:17.528Z,63.77
2019-03-20T20:34:48.780Z,63.94
2019-03-20T20:37:20.433Z,63.94
2019-03-20T20:39:51.706Z,63.99
2019-03-20T20:42:23.640Z,63.99
2019-03-20T20:44:54.902Z,64.17
2019-03-20T20:47:26.601Z,64.29
2019-03-20T20:49:58.522Z,64.39
2019-03-20T20:52:30.117Z,64.54
2019-03-20T20:55:01.455Z,64.71
2019-03-20T20:57:33.120Z,64.65
2019-03-20T21:00:05.978Z,64.82
2019-03-20T21:02:37.642Z,64.94
2019-03-20T21:05:09.028Z,65.06
2019-03-20T21:07:41.024Z,65.22
2019-03-20T21:10:13.988Z,65.38
2019-03-20T21:12:55.499Z,65.35
2019-03-20T21:15:46.410Z,65.42
2019-03-20T21:19:18.633Z,65.32
2019-03-20T21:22:49.502Z,65.34
2019-03-20T21:25:23.322Z,65.50
2019-03-20T21:28:59.645Z,65.46
2019-03-20T21:31:49.286Z,65.92
2019-03-20T21:35:37.535Z,65.74
2019-03-20T21:38:07.482Z,65.97
2019-03-20T21:41:37.567Z,66.04
2019-03-20T21:45:16.713Z,66.37
2019-03-20T21:47:48.788Z,65.95
2019-03-20T21:51:09.254Z,66.51
2019-03-20T21:54:42.080Z,66.31
2019-03-20T21:58:11.998Z,66.44
2019-03-20T22:01:41.913Z,66.58
2019-03-20T22:04:13.976Z,67.01
2019-03-20T22:07:13.126Z,66.54
2019-03-20T22:11:00.845Z,67.00
2019-03-20T22:14:04.600Z,66.90
2019-03-20T22:17:51.557Z,66.71
2019-03-20T22:20:59.165Z,66.65
2019-03-20T22:24:46.842Z,66.95
2019-03-20T22:28:23.793Z,67.33
2019-03-20T22:30:55.842Z,67.46
2019-03-20T22:34:20.263Z,67.40
2019-03-20T22:36:52.334Z,67.60
2019-03-20T22:40:35.619Z,67.91
2019-03-20T22:43:30.225Z,67.54
2019-03-20T22:46:43.870Z,68.00
2019-03-20T22:49:52.087Z,69.04
2019-03-20T22:53:12.309Z,69.02
2019-03-20T22:56:42.673Z,69.70
2019-03-20T22:59:15.492Z,69.87
2019-03-20T23:02:24.104Z,70.13
2019-03-20T23:04:59.441Z,70.06
2019-03-20T23:07:31.658Z,69.98
2019-03-20T23:10:03.712Z,69.92
2019-03-20T23:12:36.177Z,69.71
2019-03-20T23:15:11.213Z,69.83
2019-03-20T23:17:43.286Z,69.17
2019-03-20T23:20:18.982Z,69.31
2019-03-20T23:22:51.507Z,68.86
2019-03-20T23:25:25.391Z,69.25
2019-03-20T23:28:00.308Z,69.72
2019-03-20T23:30:32.708Z,69.52
2019-03-20T23:33:04.732Z,69.17
2019-03-20T23:35:36.832Z,69.79
2019-03-20T23:38:09.682Z,69.24
2019-03-20T23:40:41.724Z,70.03
2019-03-20T23:43:14.545Z,70.40
2019-03-20T23:45:47.020Z,70.07
2019-03-20T23:49:00.151Z,69.79
2019-03-20T23:51:32.266Z,68.97
2019-03-20T23:54:04.898Z,69.43
2019-03-20T23:56:38.109Z,69.30
2019-03-20T23:59:10.650Z,69.66
